createdAt,value
2023-01-15T00:19:01.088Z,97
2023-01-15T00:49:01.211Z,97
2023-01-15T01:19:06.000Z,97.0
2023-01-15T01:49:09.000Z,97.0
2023-01-15T02:19:10.103Z,97
2023-01-15T02:49:11.000Z,97.0
2023-01-15T03:19:20.000Z,96.0
2023-01-15T03:49:22.000Z,96.0
2023-01-15T04:19:33.000Z,96.0
2023-01-15T04:49:35.000Z,94.0
2023-01-15T05:19:37.000Z,86.0
2023-01-15T05:49:41.000Z,87.0
2023-01-15T06:19:42.000Z,87.0
2023-01-15T06:49:44.000Z,91.0
2023-01-15T07:19:49.000Z,93.0
2023-01-15T07:49:50.000Z,93.0
2023-01-15T08:19:53.000Z,92.0
2023-01-15T08:50:00.000Z,94.0
2023-01-15T09:20:01.000Z,93.0
2023-01-15T09:50:03.000Z,93.0
2023-01-15T10:20:08.000Z,93.0
2023-01-15T10:50:13.000Z,93.0
2023-01-15T11:20:21.000Z,93.0
2023-01-15T11:50:25.000Z,93.0
2023-01-15T12:20:26.000Z,93.0
2023-01-15T12:50:31.000Z,94.0
2023-01-15T13:20:36.000Z,90.0
2023-01-15T13:50:41.000Z,90.0
2023-01-15T14:20:47.000Z,93.0
2023-01-15T14:50:57.000Z,89.0
2023-01-15T15:21:01.000Z,93.0
2023-01-15T15:51:08.000Z,94.0
2023-01-15T16:21:13.000Z,95.0
2023-01-15T16:51:17.000Z,96.0
2023-01-15T17:21:19.000Z,97.0
2023-01-15T17:51:25.000Z,97.0
2023-01-15T18:21:30.000Z,97.0
2023-01-15T18:51:36.000Z,97.0
2023-01-15T19:21:39.000Z,97.0
2023-01-15T19:51:46.000Z,98.0
2023-01-15T20:21:52.000Z,98.0
2023-01-15T20:51:54.000Z,98.0
2023-01-15T21:22:05.000Z,98.0
2023-01-15T21:52:07.000Z,98.0
2023-01-15T22:22:12.000Z,98.0
2023-01-15T22:52:21.000Z,98.0
2023-01-15T23:22:30.000Z,98.0
2023-01-15T23:52:39.000Z,98.0
